Time;durP1;ratioP1;P1;durP2;ratioP2;P2;SDS_P1;SDS_P2;PMS_P1;PMS_P2;Temp;Humidity;BMP_temperature;BMP_pressure;BME280_temperature;BME280_humidity;BME280_pressure;Samples;Min_cycle;Max_cycle;Signal;HPM_P1;HPM_P2
2022/02/25 00:00:47;;;;;;;3.75;1.40;;;;;;;3.31;67.28;99230.63;2622791;54;20038;-66
2022/02/25 00:03:20;;;;;;;3.20;1.00;;;;;;;3.31;67.10;99228.00;2623450;54;20038;-66
2022/02/25 00:05:49;;;;;;;3.97;1.42;;;;;;;3.30;67.00;99231.53;2623409;54;20031;-65
2022/02/25 00:08:19;;;;;;;2.58;1.10;;;;;;;3.33;67.03;99241.75;2623548;46;20042;-67
2022/02/25 00:10:48;;;;;;;3.15;1.13;;;;;;;3.29;66.91;99242.97;2624111;54;20037;-64
2022/02/25 00:13:18;;;;;;;4.10;1.75;;;;;;;3.19;67.02;99250.81;2623082;47;20557;-63
2022/02/25 00:15:48;;;;;;;4.53;1.40;;;;;;;3.20;67.23;99252.44;2623359;47;20027;-64
2022/02/25 00:18:20;;;;;;;2.88;1.20;;;;;;;3.18;67.13;99251.75;2623911;54;20034;-64
2022/02/25 00:20:50;;;;;;;3.53;1.00;;;;;;;3.18;67.05;99256.97;2623161;47;20042;-64
2022/02/25 00:23:19;;;;;;;3.58;1.33;;;;;;;3.12;67.30;99260.94;2624412;54;20038;-64
2022/02/25 00:25:49;;;;;;;4.20;1.40;;;;;;;3.15;67.32;99275.53;2625578;54;20030;-65
2022/02/25 00:28:19;;;;;;;5.07;1.15;;;;;;;3.08;67.29;99285.69;2625884;54;20033;-68
2022/02/25 00:30:50;;;;;;;4.55;1.80;;;;;;;3.09;67.17;99279.50;2624355;46;20658;-67
2022/02/25 00:33:23;;;;;;;5.22;1.60;;;;;;;3.01;67.33;99281.94;2623917;47;20033;-66
2022/02/25 00:35:53;;;;;;;4.68;1.35;;;;;;;2.98;67.47;99288.28;2624507;54;20033;-66
2022/02/25 00:38:23;;;;;;;6.50;2.15;;;;;;;3.04;67.31;99286.91;2624287;47;20026;-66
2022/02/25 00:40:57;;;;;;;7.45;1.88;;;;;;;3.08;67.25;99287.47;2624998;54;20596;-65
2022/02/25 00:43:27;;;;;;;3.88;1.33;;;;;;;3.05;67.22;99292.97;2624809;47;20038;-65
2022/02/25 00:45:56;;;;;;;6.53;1.45;;;;;;;3.04;67.53;99299.97;2624969;54;20086;-65
2022/02/25 00:48:29;;;;;;;2.88;1.30;;;;;;;3.05;67.31;99295.56;2624717;39;20504;-66
2022/02/25 00:51:02;;;;;;;4.80;1.60;;;;;;;3.04;67.12;99302.59;2624661;54;20039;-65
2022/02/25 00:53:32;;;;;;;4.80;1.52;;;;;;;3.05;66.71;99296.41;2624212;54;20038;-64
2022/02/25 00:56:02;;;;;;;4.57;1.67;;;;;;;3.05;66.78;99295.56;2624156;54;20038;-65
2022/02/25 00:58:32;;;;;;;3.03;1.60;;;;;;;3.02;66.79;99304.53;2624845;54;20030;-66
2022/02/25 01:01:04;;;;;;;5.85;1.80;;;;;;;2.96;67.22;99305.03;2625194;54;20030;-65
2022/02/25 01:03:38;;;;;;;6.25;1.92;;;;;;;2.94;66.80;99302.56;2624139;54;20580;-63
2022/02/25 01:06:09;;;;;;;;;;;;;;;2.92;66.79;99309.69;2624530;54;20026;-66
2022/02/25 01:08:39;;;;;;;9.82;2.45;;;;;;;2.85;67.06;99305.94;2624365;54;19946;-66
2022/02/25 01:11:09;;;;;;;5.95;2.20;;;;;;;2.79;67.01;99311.69;2624180;54;20577;-66
2022/02/25 01:13:39;;;;;;;8.05;2.50;;;;;;;2.81;67.43;99312.38;2623221;54;20573;-64
2022/02/25 01:16:09;;;;;;;10.43;2.80;;;;;;;2.79;67.54;99306.47;2621956;54;20110;-67
2022/02/25 01:18:42;;;;;;;8.23;2.55;;;;;;;2.83;67.77;99315.69;2621311;54;20053;-65
2022/02/25 01:21:12;;;;;;;8.15;2.60;;;;;;;2.86;67.39;99312.00;2620439;54;20041;-67
2022/02/25 01:23:43;;;;;;;6.65;2.38;;;;;;;2.86;67.52;99317.25;2620661;47;20026;-65
2022/02/25 01:26:13;;;;;;;8.13;2.38;;;;;;;2.88;67.46;99326.56;2620301;46;20083;-67
2022/02/25 01:28:43;;;;;;;15.20;3.35;;;;;;;2.89;67.68;99322.16;2621005;54;20034;-67
2022/02/25 01:31:12;;;;;;;11.95;3.28;;;;;;;2.90;67.43;99318.63;2620849;47;20095;-67
2022/02/25 01:33:46;;;;;;;10.27;3.42;;;;;;;2.93;67.78;99313.94;2621417;54;20026;-66
2022/02/25 01:36:15;;;;;;;5.68;1.80;;;;;;;2.90;67.67;99324.69;2621398;54;20027;-66
2022/02/25 01:38:46;;;;;;;12.80;2.55;;;;;;;2.91;68.31;99328.09;2622168;47;20037;-66
2022/02/25 01:41:16;;;;;;;6.93;2.20;;;;;;;2.92;68.21;99327.97;2620686;46;20042;-63
2022/02/25 01:43:46;;;;;;;4.55;2.03;;;;;;;2.83;68.24;99328.75;2619754;54;20031;-66
2022/02/25 01:46:16;;;;;;;7.10;2.05;;;;;;;2.82;68.92;99327.13;2619538;54;20026;-65
2022/02/25 01:48:50;;;;;;;8.48;2.97;;;;;;;2.84;68.91;99326.97;2620316;46;20167;-66
2022/02/25 01:51:20;;;;;;;11.40;3.03;;;;;;;2.86;68.97;99331.13;2619864;54;20144;-66
2022/02/25 01:53:50;;;;;;;12.90;3.13;;;;;;;2.88;69.10;99334.41;2620182;54;20027;-65
2022/02/25 01:56:20;;;;;;;6.90;2.85;;;;;;;2.89;69.21;99336.06;2620233;54;20038;-66
2022/02/25 01:58:50;;;;;;;5.32;2.38;;;;;;;2.90;69.09;99336.91;2620391;54;20129;-66
2022/02/25 02:01:22;;;;;;;11.05;2.70;;;;;;;2.93;69.28;99340.06;2620549;47;20027;-66
2022/02/25 02:03:57;;;;;;;11.90;3.25;;;;;;;2.90;68.99;99340.34;2620086;47;20026;-63
2022/02/25 02:06:26;;;;;;;6.15;2.20;;;;;;;2.92;69.12;99345.41;2620817;54;20037;-65
2022/02/25 02:08:57;;;;;;;7.75;2.17;;;;;;;2.92;69.25;99346.25;2621119;54;20023;-65
2022/02/25 02:11:29;;;;;;;8.57;2.45;;;;;;;2.86;68.92;99354.63;2620679;39;20504;-66
2022/02/25 02:13:59;;;;;;;9.52;1.90;;;;;;;2.85;69.02;99352.13;2620594;54;20022;-66
2022/02/25 02:16:30;;;;;;;6.32;1.92;;;;;;;2.81;69.41;99354.16;2621124;54;20046;-65
2022/02/25 02:19:03;;;;;;;6.22;2.00;;;;;;;2.75;69.40;99356.47;2620606;54;20041;-66
2022/02/25 02:21:42;;;;;;;7.45;2.28;;;;;;;2.75;69.21;99353.88;2622090;47;20034;-66
2022/02/25 02:24:21;;;;;;;11.88;3.13;;;;;;;2.73;69.51;99353.97;2619990;47;20533;-66
2022/02/25 02:26:53;;;;;;;7.93;2.45;;;;;;;2.75;69.33;99356.47;2621444;54;20126;-66
2022/02/25 02:29:23;;;;;;;8.20;2.78;;;;;;;2.78;69.43;99353.63;2624360;39;20433;-67
2022/02/25 02:31:54;;;;;;;11.32;2.67;;;;;;;2.81;69.56;99350.72;2622549;54;20078;-65
2022/02/25 02:34:24;;;;;;;12.05;3.13;;;;;;;2.81;69.38;99353.34;2623423;54;20565;-64
2022/02/25 02:36:53;;;;;;;11.93;3.17;;;;;;;2.86;69.54;99348.56;2623554;47;20034;-64
2022/02/25 02:39:26;;;;;;;14.07;3.90;;;;;;;2.88;69.04;99346.63;2622500;54;20027;-66
2022/02/25 02:41:55;;;;;;;12.05;3.22;;;;;;;2.86;68.98;99353.78;2621899;54;20030;-66
2022/02/25 02:44:25;;;;;;;15.38;3.15;;;;;;;2.80;68.85;99344.69;2623875;54;20022;-64
2022/02/25 02:46:55;;;;;;;7.10;2.15;;;;;;;2.76;69.10;99351.13;2622144;46;20027;-65
2022/02/25 02:49:25;;;;;;;8.15;2.75;;;;;;;2.80;68.60;99359.53;2623106;54;20031;-64
2022/02/25 02:51:54;;;;;;;12.50;2.88;;;;;;;2.81;68.59;99361.16;2623947;39;20465;-65
2022/02/25 02:54:26;;;;;;;9.75;2.80;;;;;;;2.79;68.58;99368.31;2622067;47;20573;-64
2022/02/25 02:56:56;;;;;;;12.63;2.85;;;;;;;2.79;68.46;99363.91;2622500;46;20085;-67
2022/02/25 02:59:26;;;;;;;11.95;2.75;;;;;;;2.77;68.55;99360.59;2623214;39;20457;-67
2022/02/25 03:01:57;;;;;;;5.80;2.30;;;;;;;2.75;68.92;99366.91;2621850;47;20094;-67
2022/02/25 03:04:29;;;;;;;8.00;2.40;;;;;;;2.79;68.61;99369.13;2622552;54;20021;-65
2022/02/25 03:07:00;;;;;;;11.18;2.70;;;;;;;2.89;68.54;99363.97;2622206;47;20029;-65
2022/02/25 03:09:32;;;;;;;9.02;2.38;;;;;;;2.94;68.44;99364.41;2622890;54;20070;-64
2022/02/25 03:12:02;;;;;;;8.77;2.50;;;;;;;2.98;68.46;99371.03;2622777;47;20042;-65
2022/02/25 03:14:31;;;;;;;10.50;2.70;;;;;;;2.92;68.29;99376.75;2624026;54;20034;-64
2022/02/25 03:17:01;;;;;;;7.00;1.75;;;;;;;2.96;68.28;99376.38;2623362;54;20046;-65
2022/02/25 03:19:35;;;;;;;14.90;3.10;;;;;;;3.02;68.07;99380.25;2623376;54;20034;-64
2022/02/25 03:22:05;;;;;;;9.80;2.28;;;;;;;3.05;67.67;99376.53;2623947;47;20035;-65
2022/02/25 03:24:58;;;;;;;8.88;2.10;;;;;;;3.08;67.64;99373.69;2624154;54;20037;-65
2022/02/25 03:27:29;;;;;;;6.85;2.45;;;;;;;3.08;67.69;99390.19;2623171;47;20027;-65
2022/02/25 03:29:59;;;;;;;10.07;2.35;;;;;;;3.02;67.83;99390.72;2624730;46;20046;-67
2022/02/25 03:32:29;;;;;;;8.63;2.28;;;;;;;3.01;67.53;99393.44;2624912;39;20422;-65
2022/02/25 03:35:02;;;;;;;10.15;2.28;;;;;;;3.05;67.89;99395.66;2624082;47;20560;-66
2022/02/25 03:37:32;;;;;;;8.88;2.53;;;;;;;3.09;67.52;99396.22;2624594;54;20061;-65
2022/02/25 03:40:06;;;;;;;10.88;2.78;;;;;;;3.12;67.84;99396.78;2624429;47;20038;-65
2022/02/25 03:42:36;;;;;;;8.90;1.77;;;;;;;3.11;67.47;99399.56;2624526;39;20399;-65
2022/02/25 03:45:13;;;;;;;7.50;1.77;;;;;;;3.05;67.86;99397.44;2624753;54;20041;-66
2022/02/25 03:47:45;;;;;;;12.32;2.63;;;;;;;3.05;67.50;99400.88;2624801;54;20098;-67
2022/02/25 03:50:15;;;;;;;10.00;2.28;;;;;;;3.10;67.95;99410.94;2624465;54;20026;-66
2022/02/25 03:52:46;;;;;;;10.73;2.58;;;;;;;3.11;67.24;99410.81;2623806;51;20027;-66
2022/02/25 03:55:19;;;;;;;12.05;2.75;;;;;;;3.09;67.54;99412.72;2623696;47;20033;-64
2022/02/25 03:57:49;;;;;;;8.38;2.17;;;;;;;3.09;67.67;99417.94;2623928;39;20447;-67
2022/02/25 04:00:19;;;;;;;11.70;2.53;;;;;;;3.08;67.72;99411.06;2624621;54;20041;-66
2022/02/25 04:02:49;;;;;;;14.13;2.75;;;;;;;3.07;67.26;99422.50;2624900;54;20098;-65
2022/02/25 04:05:19;;;;;;;7.65;2.70;;;;;;;3.02;67.43;99406.38;2623906;54;20022;-66
2022/02/25 04:07:50;;;;;;;5.43;2.15;;;;;;;2.99;67.45;99419.69;2624804;54;20030;-67
2022/02/25 04:10:23;;;;;;;12.35;2.08;;;;;;;2.95;67.53;99424.34;2626214;54;20549;-64
2022/02/25 04:12:53;;;;;;;8.48;2.95;;;;;;;2.92;67.73;99423.78;2625818;54;20034;-63
2022/02/25 04:15:22;;;;;;;14.05;2.95;;;;;;;2.91;67.66;99425.56;2619578;54;20027;-65
2022/02/25 04:17:52;;;;;;;12.55;2.53;;;;;;;2.84;67.84;99419.19;2618977;54;20066;-65
2022/02/25 04:20:21;;;;;;;7.13;2.05;;;;;;;2.82;67.95;99421.13;2619173;54;20034;-65
2022/02/25 04:22:51;;;;;;;6.43;2.38;;;;;;;2.82;68.34;99430.72;2625342;54;20038;-64
2022/02/25 04:25:24;;;;;;;6.15;2.30;;;;;;;2.78;68.14;99417.09;2623254;46;20065;-65
2022/02/25 04:27:53;;;;;;;9.27;2.47;;;;;;;2.76;68.00;99426.00;2619403;54;20150;-64
2022/02/25 04:30:23;;;;;;;8.77;2.25;;;;;;;2.79;68.60;99429.19;2621647;54;20050;-66
2022/02/25 04:32:53;;;;;;;10.77;2.33;;;;;;;2.78;68.69;99414.50;2624961;54;20022;-66
2022/02/25 04:35:23;;;;;;;9.20;2.10;;;;;;;2.81;68.12;99423.84;2623512;54;20033;-64
2022/02/25 04:37:53;;;;;;;11.20;2.50;;;;;;;2.78;68.28;99430.16;2625552;54;20039;-64
2022/02/25 04:40:25;;;;;;;11.88;2.47;;;;;;;2.76;68.65;99434.66;2626097;54;20026;-64
2022/02/25 04:42:55;;;;;;;8.15;2.42;;;;;;;2.83;68.82;99435.81;2627018;54;20030;-65
2022/02/25 04:45:25;;;;;;;8.40;2.95;;;;;;;2.91;68.60;99438.63;2626634;54;20038;-65
2022/02/25 04:47:55;;;;;;;8.38;2.40;;;;;;;2.97;68.65;99445.09;2628810;39;20430;-64
2022/02/25 04:50:26;;;;;;;10.77;2.90;;;;;;;2.98;68.51;99446.78;2625235;54;20082;-65
2022/02/25 04:52:56;;;;;;;6.82;2.00;;;;;;;3.04;68.60;99448.03;2626688;54;20034;-64
2022/02/25 04:55:28;;;;;;;7.72;2.38;;;;;;;3.09;68.27;99451.09;2622500;54;20534;-65
2022/02/25 04:57:58;;;;;;;11.90;2.30;;;;;;;3.10;68.07;99452.72;2623139;54;20026;-65
2022/02/25 05:00:28;;;;;;;11.52;2.20;;;;;;;3.10;68.41;99458.81;2624104;54;20037;-65
2022/02/25 05:02:58;;;;;;;10.55;2.80;;;;;;;3.07;67.92;99456.44;2624534;54;20027;-65
2022/02/25 05:05:27;;;;;;;12.43;2.33;;;;;;;3.12;68.41;99462.09;2624936;54;20034;-65
2022/02/25 05:07:58;;;;;;;6.70;2.05;;;;;;;3.11;67.83;99457.84;2625777;54;20565;-65
2022/02/25 05:10:32;;;;;;;12.82;2.30;;;;;;;3.06;67.76;99457.41;2625869;54;20031;-65
2022/02/25 05:13:02;;;;;;;9.55;1.83;;;;;;;3.02;68.07;99468.22;2626277;54;20031;-65
2022/02/25 05:21:20;;;;;;;7.57;1.77;;;;;;;3.07;68.08;99473.91;2618999;31;20465;-63
2022/02/25 05:23:50;;;;;;;7.43;1.88;;;;;;;3.07;67.82;99482.56;2618127;54;20610;-62
2022/02/25 05:26:22;;;;;;;9.90;2.85;;;;;;;3.09;68.09;99475.41;2621653;39;20465;-64
2022/02/25 05:28:52;;;;;;;7.85;2.30;;;;;;;3.10;67.90;99476.25;2622630;54;20033;-63
2022/02/25 05:31:22;;;;;;;8.18;2.25;;;;;;;3.14;68.29;99477.63;2622332;54;20022;-63
2022/02/25 05:33:53;;;;;;;11.90;2.78;;;;;;;3.15;68.01;99471.47;2623469;54;20584;-63
2022/02/25 05:36:23;;;;;;;6.00;1.90;;;;;;;3.19;68.20;99486.78;2624287;54;20029;-63
2022/02/25 05:38:55;;;;;;;12.30;2.58;;;;;;;3.17;68.06;99488.66;2624338;54;20560;-63
2022/02/25 05:41:27;;;;;;;11.55;2.60;;;;;;;3.25;68.27;99485.41;2623206;47;20026;-62
2022/02/25 05:43:58;;;;;;;9.52;2.58;;;;;;;3.30;68.27;99488.47;2623499;54;20030;-62
2022/02/25 05:46:28;;;;;;;10.43;2.38;;;;;;;3.31;67.84;99497.16;2623663;46;20069;-63
2022/02/25 05:48:58;;;;;;;8.80;2.35;;;;;;;3.32;68.05;99486.56;2619618;54;20034;-64
2022/02/25 05:51:27;;;;;;;6.22;2.13;;;;;;;3.29;67.65;99494.66;2618633;54;20023;-62
2022/02/25 05:53:57;;;;;;;9.38;2.05;;;;;;;3.23;67.47;99503.03;2618313;54;20033;-62
2022/02/25 05:56:29;;;;;;;7.75;2.22;;;;;;;3.25;68.09;99506.31;2618563;54;20042;-63
2022/02/25 05:58:59;;;;;;;12.05;1.95;;;;;;;3.29;68.11;99506.91;2618779;54;20034;-63
2022/02/25 06:01:29;;;;;;;11.07;2.83;;;;;;;3.29;67.76;99525.19;2619071;39;20411;-63
2022/02/25 06:03:58;;;;;;;12.65;3.28;;;;;;;3.27;67.65;99525.31;2618141;54;20137;-63
2022/02/25 06:06:28;;;;;;;8.05;3.53;;;;;;;3.30;68.10;99532.06;2622041;54;20022;-64
2022/02/25 06:08:59;;;;;;;15.27;3.10;;;;;;;3.28;67.77;99526.97;2623597;54;20045;-63
2022/02/25 06:11:31;;;;;;;14.25;3.55;;;;;;;3.27;68.04;99533.16;2617972;54;20038;-67
2022/02/25 06:14:00;;;;;;;14.73;2.75;;;;;;;3.20;67.66;99543.28;2618228;54;20065;-64
2022/02/25 06:16:30;;;;;;;9.05;2.97;;;;;;;3.21;67.84;99539.72;2618354;47;20035;-63
2022/02/25 06:19:02;;;;;;;7.72;2.30;;;;;;;3.25;67.82;99544.69;2619068;54;20087;-63
2022/02/25 06:21:32;;;;;;;11.07;2.58;;;;;;;3.26;68.17;99549.78;2618928;54;20031;-63
2022/02/25 06:24:03;;;;;;;11.20;3.35;;;;;;;3.29;68.20;99554.75;2619469;54;20146;-63
2022/02/25 06:26:35;;;;;;;13.73;2.70;;;;;;;3.33;68.05;99552.72;2619391;54;20030;-63
2022/02/25 06:29:05;;;;;;;6.80;2.40;;;;;;;3.33;67.60;99560.56;2619325;54;20042;-64
2022/02/25 06:31:35;;;;;;;12.73;2.83;;;;;;;3.35;67.98;99553.44;2619296;54;20042;-63
2022/02/25 06:34:06;;;;;;;9.73;2.92;;;;;;;3.35;68.03;99562.09;2618958;54;20129;-63
2022/02/25 06:36:35;;;;;;;11.63;2.53;;;;;;;3.40;67.77;99561.72;2618673;54;20038;-64
2022/02/25 06:39:07;;;;;;;12.93;2.80;;;;;;;3.45;67.96;99565.59;2619159;54;20530;-62
2022/02/25 06:41:39;;;;;;;6.65;2.88;;;;;;;3.44;67.58;99568.34;2619565;31;20554;-63
2022/02/25 06:44:09;;;;;;;12.05;2.70;;;;;;;3.40;67.92;99567.78;2618921;54;20031;-63
2022/02/25 06:46:39;;;;;;;11.40;3.00;;;;;;;3.38;67.78;99561.00;2618934;54;20550;-63
2022/02/25 06:49:11;;;;;;;11.10;4.60;;;;;;;3.37;67.93;99561.97;2618795;54;20041;-64
2022/02/25 06:51:41;;;;;;;7.90;3.33;;;;;;;3.38;67.99;99574.06;2618399;47;20034;-63
2022/02/25 06:54:11;;;;;;;10.88;3.90;;;;;;;3.33;67.63;99571.00;2618786;54;20058;-63
2022/02/25 06:56:44;;;;;;;18.55;7.45;;;;;;;3.35;67.75;99569.13;2619126;54;20038;-64
2022/02/25 06:59:13;;;;;;;18.73;6.05;;;;;;;3.36;68.04;99571.59;2618407;47;20023;-63
2022/02/25 07:01:43;;;;;;;10.60;2.83;;;;;;;3.44;67.41;99576.19;2618667;47;20026;-64
2022/02/25 07:04:15;;;;;;;8.68;2.55;;;;;;;3.44;67.41;99587.47;2618235;54;20034;-65
2022/02/25 07:06:48;;;;;;;9.93;2.78;;;;;;;3.52;67.56;99584.22;2619034;54;20034;-63
2022/02/25 07:09:17;;;;;;;10.02;2.55;;;;;;;3.55;67.47;99583.09;2619213;54;20041;-64
2022/02/25 07:11:50;;;;;;;8.95;2.50;;;;;;;3.58;67.69;99586.31;2619610;54;20027;-63
2022/02/25 07:14:20;;;;;;;11.00;2.92;;;;;;;3.53;67.59;99585.03;2620287;47;20078;-65
2022/02/25 07:16:49;;;;;;;8.45;2.70;;;;;;;3.51;67.32;99586.94;2619987;54;20037;-65
2022/02/25 07:19:19;;;;;;;10.10;2.75;;;;;;;3.39;67.03;99583.59;2619176;54;20037;-65
2022/02/25 07:21:49;;;;;;;15.90;3.65;;;;;;;3.40;67.12;99583.44;2618938;54;20082;-62
2022/02/25 07:24:19;;;;;;;10.10;3.40;;;;;;;3.43;67.39;99582.38;2618887;54;20633;-65
2022/02/25 07:26:52;;;;;;;12.30;3.20;;;;;;;3.42;67.34;99584.13;2619416;31;20539;-64
2022/02/25 07:29:22;;;;;;;9.55;3.45;;;;;;;3.52;67.59;99593.84;2618816;47;20039;-64
2022/02/25 07:31:51;;;;;;;8.50;2.80;;;;;;;3.52;67.07;99593.84;2618298;54;20042;-63
2022/02/25 07:34:22;;;;;;;9.38;3.05;;;;;;;3.61;67.12;99595.69;2618645;54;20030;-63
2022/02/25 07:36:52;;;;;;;12.70;3.17;;;;;;;3.66;66.98;99596.13;2618783;47;20023;-63
2022/02/25 07:39:23;;;;;;;6.38;2.63;;;;;;;3.57;67.24;99597.72;2619231;54;20795;-63
2022/02/25 07:42:01;;;;;;;17.40;3.80;;;;;;;3.50;67.21;99591.34;2618942;47;20077;-62
2022/02/25 07:44:30;;;;;;;8.88;2.45;;;;;;;3.41;67.11;99600.78;2619562;54;20552;-65
2022/02/25 07:47:00;;;;;;;10.45;3.03;;;;;;;3.33;67.29;99597.97;2619230;54;20030;-65
2022/02/25 07:49:31;;;;;;;10.45;3.55;;;;;;;3.37;67.36;99601.16;2618643;46;20042;-63
2022/02/25 07:52:00;;;;;;;9.20;3.13;;;;;;;3.44;67.26;99605.75;2619316;54;20030;-63
2022/02/25 07:54:31;;;;;;;8.23;2.97;;;;;;;3.57;67.27;99597.72;2619145;54;20561;-63
2022/02/25 07:57:03;;;;;;;12.25;3.05;;;;;;;3.58;67.02;99602.00;2619205;54;20035;-63
2022/02/25 07:59:33;;;;;;;11.65;3.85;;;;;;;3.68;67.30;99610.72;2618678;54;20537;-63
2022/02/25 08:02:03;;;;;;;15.57;3.95;;;;;;;3.62;66.85;99610.41;2618683;54;20041;-63
2022/02/25 08:04:33;;;;;;;11.70;3.05;;;;;;;3.63;66.96;99614.66;2619049;54;20026;-64
2022/02/25 08:07:23;;;;;;;14.60;3.10;;;;;;;3.71;66.46;99625.31;2618907;54;20026;-64
2022/02/25 08:09:53;;;;;;;9.98;3.38;;;;;;;3.80;66.62;99627.19;2618301;54;20042;-65
2022/02/25 08:12:27;;;;;;;11.77;3.20;;;;;;;3.90;66.22;99622.00;2618388;54;20513;-64
2022/02/25 08:14:57;;;;;;;14.00;3.33;;;;;;;3.99;66.34;99621.19;2618625;39;20433;-63
2022/02/25 08:17:27;;;;;;;8.38;2.92;;;;;;;4.04;65.92;99628.66;2618779;47;20035;-63
2022/02/25 08:19:57;;;;;;;15.10;4.43;;;;;;;4.02;65.84;99628.81;2618410;54;20142;-63
2022/02/25 08:22:27;;;;;;;9.32;3.67;;;;;;;4.33;67.31;99632.25;2619167;39;20429;-63
2022/02/25 08:24:57;;;;;;;13.63;3.55;;;;;;;4.61;66.24;99629.81;2618766;54;20029;-62
2022/02/25 08:27:29;;;;;;;13.23;3.28;;;;;;;4.84;65.84;99630.44;2618871;51;20549;-63
2022/02/25 08:29:59;;;;;;;10.73;3.22;;;;;;;5.06;65.08;99627.59;2618999;54;20565;-62
2022/02/25 08:32:30;;;;;;;13.48;3.53;;;;;;;5.21;64.89;99638.47;2618919;54;20038;-61
2022/02/25 08:34:59;;;;;;;7.35;2.85;;;;;;;5.35;64.53;99637.25;2619267;54;20034;-62
2022/02/25 08:37:30;;;;;;;7.55;2.85;;;;;;;5.46;64.27;99637.06;2620064;54;20557;-62
2022/02/25 08:40:01;;;;;;;13.43;3.40;;;;;;;5.59;63.37;99639.41;2619356;47;20034;-63
2022/02/25 08:42:35;;;;;;;10.40;3.00;;;;;;;5.59;63.18;99626.28;2618120;54;20023;-61
2022/02/25 08:45:06;;;;;;;14.00;3.95;;;;;;;5.71;63.42;99628.63;2618593;54;20046;-61
2022/02/25 08:47:36;;;;;;;8.15;2.95;;;;;;;5.86;63.01;99629.00;2619360;47;20036;-64
2022/02/25 08:50:07;;;;;;;10.25;3.30;;;;;;;6.02;62.28;99640.75;2622312;54;20034;-64
2022/02/25 08:52:36;;;;;;;6.32;2.60;;;;;;;6.03;61.06;99635.34;2619359;39;20433;-63
2022/02/25 08:55:07;;;;;;;13.55;3.50;;;;;;;5.81;61.57;99633.84;2619259;54;20050;-63
2022/02/25 08:57:40;;;;;;;12.23;3.30;;;;;;;5.61;61.48;99633.06;2619420;47;20033;-63
2022/02/25 09:00:11;;;;;;;16.88;3.78;;;;;;;5.41;61.86;99641.91;2620409;54;20027;-65
2022/02/25 09:02:59;;;;;;;15.88;3.72;;;;;;;5.10;62.35;99643.84;2618435;54;20525;-63
2022/02/25 09:05:29;;;;;;;8.70;3.60;;;;;;;4.97;63.06;99649.34;2618748;54;20034;-63
2022/02/25 09:07:58;;;;;;;12.77;3.47;;;;;;;4.85;62.90;99650.41;2618844;54;20039;-63
2022/02/25 09:10:28;;;;;;;12.85;3.50;;;;;;;4.83;63.16;99649.75;2619077;54;20050;-63
2022/02/25 09:13:00;;;;;;;15.35;3.90;;;;;;;4.89;63.03;99642.16;2621486;54;20077;-65
2022/02/25 09:15:30;;;;;;;11.15;3.42;;;;;;;4.93;63.14;99647.97;2622946;39;20685;-63
2022/02/25 09:18:04;;;;;;;13.18;3.10;;;;;;;5.01;63.57;99642.03;2621223;54;20019;-64
2022/02/25 09:20:35;;;;;;;10.27;3.43;;;;;;;5.03;62.65;99645.38;2619981;54;20031;-64
2022/02/25 09:23:04;;;;;;;13.15;3.55;;;;;;;4.97;63.37;99639.69;2621671;54;20952;-62
2022/02/25 09:25:34;;;;;;;12.77;4.32;;;;;;;4.96;63.76;99645.06;2621699;54;20532;-64
2022/02/25 09:28:07;;;;;;;20.63;5.35;;;;;;;5.08;63.53;99641.34;2621452;54;20022;-64
2022/02/25 09:30:37;;;;;;;13.95;4.55;;;;;;;5.39;63.38;99649.94;2621909;54;20586;-62
2022/02/25 09:33:07;;;;;;;11.73;4.90;;;;;;;5.60;63.23;99647.16;2622077;54;20022;-63
2022/02/25 09:35:36;;;;;;;13.20;5.07;;;;;;;5.64;62.63;99648.53;2621896;54;20023;-63
2022/02/25 09:38:07;;;;;;;24.73;5.38;;;;;;;5.67;62.53;99642.16;2624194;39;20441;-63
2022/02/25 09:40:38;;;;;;;10.88;3.53;;;;;;;5.62;61.94;99644.38;2622268;54;20030;-62
2022/02/25 09:43:10;;;;;;;9.75;4.50;;;;;;;5.42;62.58;99657.50;2622471;54;20094;-62
2022/02/25 09:45:40;;;;;;;10.75;3.85;;;;;;;5.31;63.06;99660.28;2622011;54;20028;-62
2022/02/25 09:48:11;;;;;;;15.48;7.47;;;;;;;5.37;63.59;99658.88;2621004;54;20057;-62
2022/02/25 09:50:42;;;;;;;15.15;4.97;;;;;;;5.38;62.54;99663.97;2618560;54;20026;-63
2022/02/25 09:53:15;;;;;;;9.18;4.20;;;;;;;5.52;62.61;99648.81;2618714;39;20469;-62
2022/02/25 09:55:44;;;;;;;17.00;4.53;;;;;;;5.59;62.92;99647.28;2618275;54;20034;-62
2022/02/25 09:58:17;;;;;;;12.55;4.50;;;;;;;5.57;62.43;99649.22;2618557;54;20050;-63
2022/02/25 10:00:47;;;;;;;26.10;11.55;;;;;;;5.55;62.93;99661.63;2618805;47;20165;-62
2022/02/25 10:03:18;;;;;;;22.70;6.13;;;;;;;5.44;63.01;99658.19;2618676;54;20027;-62
2022/02/25 10:05:49;;;;;;;10.82;4.45;;;;;;;5.48;62.92;99656.13;2618555;54;20583;-63
2022/02/25 10:08:21;;;;;;;14.65;4.78;;;;;;;5.44;62.42;99650.34;2617963;54;20031;-62
2022/02/25 10:10:54;;;;;;;11.82;4.63;;;;;;;5.50;62.59;99655.97;2618054;54;20027;-63
2022/02/25 10:13:27;;;;;;;17.00;3.53;;;;;;;5.52;62.65;99659.31;2618027;54;20023;-64
2022/02/25 10:16:18;;;;;;;12.68;4.20;;;;;;;5.33;62.51;99660.97;2617919;47;20046;-64
2022/02/25 10:18:49;;;;;;;14.02;3.65;;;;;;;5.12;63.12;99662.88;2618358;54;20038;-62
2022/02/25 10:21:24;;;;;;;13.32;4.63;;;;;;;5.10;63.48;99672.66;2617628;54;20038;-62
2022/02/25 10:23:54;;;;;;;13.40;3.70;;;;;;;5.02;63.72;99668.13;2618165;47;20061;-64
2022/02/25 10:26:27;;;;;;;10.02;3.92;;;;;;;5.01;63.69;99676.94;2618371;39;20444;-62
2022/02/25 10:29:02;;;;;;;17.75;6.10;;;;;;;4.89;64.03;99670.16;2618400;54;20042;-64
2022/02/25 10:31:33;;;;;;;29.70;11.45;;;;;;;4.87;64.20;99686.03;2617934;47;20038;-64
2022/02/25 10:34:11;;;;;;;16.88;8.50;;;;;;;4.83;64.42;99681.19;2617261;54;20074;-64
2022/02/25 10:36:47;;;;;;;15.02;5.72;;;;;;;4.85;64.35;99674.00;2621673;54;20031;-65
2022/02/25 10:39:19;;;;;;;13.43;5.75;;;;;;;4.82;64.29;99688.22;2621472;54;20900;-64
2022/02/25 10:42:04;;;;;;;11.88;4.93;;;;;;;4.88;64.82;99685.03;2622244;54;20135;-65
2022/02/25 10:44:49;;;;;;;16.17;5.22;;;;;;;4.88;64.34;99692.09;2622026;54;20034;-63
2022/02/25 10:47:24;;;;;;;18.75;4.97;;;;;;;4.80;64.21;99692.75;2623034;54;20031;-64
2022/02/25 10:50:02;;;;;;;25.13;9.68;;;;;;;4.84;64.93;99682.84;2622649;54;20046;-64
2022/02/25 10:52:34;;;;;;;37.55;11.55;;;;;;;4.93;64.38;99679.41;2622963;54;20038;-61
2022/02/25 10:55:07;;;;;;;;;;;;;;;5.02;64.47;99681.22;2623203;39;20501;-62
2022/02/25 10:57:38;;;;;;;27.33;8.50;;;;;;;5.13;64.40;99686.31;2622683;54;19939;-62
2022/02/25 11:00:14;;;;;;;20.95;6.28;;;;;;;5.20;64.31;99684.00;2621962;54;20039;-64
2022/02/25 11:02:50;;;;;;;20.73;6.68;;;;;;;5.18;64.20;99683.28;2620268;54;20034;-62
2022/02/25 11:05:23;;;;;;;18.55;5.03;;;;;;;5.16;64.27;99687.84;2620974;54;20070;-63
2022/02/25 11:07:54;;;;;;;16.83;5.22;;;;;;;5.07;63.78;99678.19;2621443;54;20030;-64
2022/02/25 11:10:26;;;;;;;15.40;4.75;;;;;;;5.11;64.36;99674.34;2621347;54;20569;-64
2022/02/25 11:12:59;;;;;;;23.65;6.38;;;;;;;5.18;64.17;99675.44;2620436;47;20026;-64
2022/02/25 11:15:33;;;;;;;23.92;6.30;;;;;;;5.31;63.63;99681.25;2620527;46;20054;-63
2022/02/25 11:18:03;;;;;;;19.38;4.50;;;;;;;5.30;63.33;99674.34;2619416;54;20034;-67
2022/02/25 11:20:35;;;;;;;14.90;4.88;;;;;;;5.36;63.49;99673.78;2623520;51;20034;-68
2022/02/25 11:23:07;;;;;;;20.10;5.40;;;;;;;5.53;63.36;99671.44;2624211;54;20022;-69
2022/02/25 11:25:39;;;;;;;19.73;5.25;;;;;;;5.65;63.03;99672.97;2625116;54;20085;-67
2022/02/25 11:28:09;;;;;;;18.58;4.78;;;;;;;5.80;63.01;99673.38;2624669;54;20030;-68
2022/02/25 11:30:47;;;;;;;19.20;5.00;;;;;;;5.79;62.38;99671.69;2623790;47;20038;-67
2022/02/25 11:33:18;;;;;;;16.83;3.92;;;;;;;5.90;62.49;99674.97;2622275;46;20023;-67
2022/02/25 11:35:53;;;;;;;16.52;4.40;;;;;;;6.03;62.12;99674.72;2620691;54;20021;-69
2022/02/25 11:38:30;;;;;;;23.67;6.22;;;;;;;6.16;61.26;99679.63;2621682;54;20038;-68
2022/02/25 11:41:04;;;;;;;;;;;;;;;6.01;60.92;99675.84;2621253;46;20031;-68
2022/02/25 11:43:40;;;;;;;20.92;6.10;;;;;;;6.02;60.40;99685.34;2621379;54;20029;-68
2022/02/25 11:46:14;;;;;;;13.32;4.55;;;;;;;6.08;60.84;99676.91;2620853;54;20085;-68
2022/02/25 11:48:47;;;;;;;11.52;3.50;;;;;;;6.23;59.87;99678.09;2619516;54;20048;-68
2022/02/25 11:51:34;;;;;;;18.17;5.15;;;;;;;6.35;60.40;99678.75;2619415;47;20030;-68
2022/02/25 11:54:28;;;;;;;9.57;3.25;;;;;;;6.38;59.71;99683.72;2617953;39;20476;-68
2022/02/25 11:57:24;;;;;;;11.82;3.00;;;;;;;6.22;59.42;99688.75;2618374;54;20027;-68
2022/02/25 12:00:18;;;;;;;12.70;3.60;;;;;;;6.02;59.81;99682.72;2618687;54;20030;-68
2022/02/25 12:03:18;;;;;;;13.43;3.90;;;;;;;5.89;60.17;99701.38;2619776;54;20102;-69